createdAt,value
2022-10-11T00:00:07.579Z,44.10
2022-10-11T00:03:10.842Z,37.03
2022-10-11T00:06:14.974Z,45.93
2022-10-11T00:09:18.617Z,39.28
2022-10-11T00:12:22.322Z,40.88
2022-10-11T00:15:26.628Z,46.75
2022-10-11T00:18:29.610Z,49.63
2022-10-11T00:21:33.521Z,48.70
2022-10-11T00:24:36.541Z,53.53
2022-10-11T00:27:41.050Z,49.38
2022-10-11T00:30:44.789Z,47.20
2022-10-11T00:33:49.134Z,45.95
2022-10-11T00:36:52.333Z,44.33
2022-10-11T00:39:55.482Z,42.17
2022-10-11T00:42:59.250Z,37.67
2022-10-11T00:46:14.557Z,47.90
2022-10-11T00:49:24.153Z,37.45
2022-10-11T00:52:39.376Z,29.73
2022-10-11T00:56:06.447Z,28.00
2022-10-11T00:59:15.625Z,27.30
2022-10-11T01:02:20.247Z,25.42
2022-10-11T01:05:31.693Z,25.80
2022-10-11T01:08:35.111Z,28.57
2022-10-11T01:11:42.422Z,26.07
2022-10-11T01:15:03.627Z,25.23
2022-10-11T01:18:10.241Z,26.92
2022-10-11T01:21:23.947Z,27.25
2022-10-11T01:24:54.328Z,28.17
2022-10-11T01:28:09.960Z,28.17
2022-10-11T01:31:22.085Z,28.08
2022-10-11T01:35:00.732Z,24.42
2022-10-11T01:38:14.067Z,23.67
2022-10-11T01:41:28.329Z,25.37
2022-10-11T01:44:35.163Z,24.47
2022-10-11T01:47:39.591Z,24.73
2022-10-11T01:50:47.963Z,26.20
2022-10-11T01:54:03.625Z,23.50
2022-10-11T01:57:23.818Z,24.73
2022-10-11T02:00:33.672Z,23.57
2022-10-11T02:03:51.903Z,22.73
2022-10-11T02:07:12.334Z,22.23
2022-10-11T02:10:45.703Z,23.40
2022-10-11T02:13:59.424Z,25.27
2022-10-11T02:17:09.061Z,25.43
2022-10-11T02:20:18.643Z,25.63
2022-10-11T02:23:27.615Z,26.27
2022-10-11T02:26:33.805Z,30.38
2022-10-11T02:29:40.694Z,23.10
2022-10-11T02:32:47.334Z,31.27
2022-10-11T02:36:06.971Z,26.83
2022-10-11T02:39:43.114Z,21.67
2022-10-11T02:43:00.213Z,25.48
2022-10-11T02:46:04.839Z,19.20
2022-10-11T02:49:09.217Z,16.53
2022-10-11T02:52:12.086Z,14.18
2022-10-11T02:55:15.990Z,10.32
2022-10-11T02:58:20.518Z,11.02
2022-10-11T03:01:23.853Z,11.03
2022-10-11T03:04:27.560Z,10.93
2022-10-11T03:07:31.509Z,11.80
2022-10-11T03:10:35.933Z,10.32
2022-10-11T03:13:39.928Z,16.95
2022-10-11T03:16:43.460Z,12.00
2022-10-11T03:19:46.701Z,20.00
2022-10-11T03:22:50.393Z,17.33
2022-10-11T03:25:54.343Z,14.57
2022-10-11T03:28:57.972Z,13.38
2022-10-11T03:32:01.279Z,12.53
2022-10-11T03:35:04.869Z,14.87
2022-10-11T03:38:12.244Z,10.48
2022-10-11T03:41:16.225Z,13.43
2022-10-11T03:44:19.128Z,13.02
2022-10-11T03:47:23.065Z,12.57
2022-10-11T03:50:26.883Z,14.43
2022-10-11T03:53:30.407Z,10.88
2022-10-11T03:56:33.964Z,12.80
2022-10-11T03:59:37.526Z,10.48
2022-10-11T04:02:40.706Z,11.13
2022-10-11T04:05:44.186Z,9.80
2022-10-11T04:08:47.750Z,11.23
2022-10-11T04:11:51.654Z,12.70
2022-10-11T04:14:54.643Z,14.10
2022-10-11T04:17:57.857Z,16.80
2022-10-11T04:21:00.767Z,16.17
2022-10-11T04:24:04.195Z,16.73
2022-10-11T04:27:07.053Z,18.10
2022-10-11T04:30:11.134Z,16.92
2022-10-11T04:33:15.107Z,15.17
2022-10-11T04:36:19.062Z,14.57
2022-10-11T04:39:22.574Z,18.40
2022-10-11T04:42:26.272Z,14.48
2022-10-11T04:45:29.133Z,13.13
2022-10-11T04:48:32.961Z,13.53
2022-10-11T04:51:36.536Z,14.37
2022-10-11T04:54:40.507Z,14.93
2022-10-11T04:57:43.948Z,14.38
2022-10-11T05:00:48.008Z,15.77
2022-10-11T05:03:52.083Z,15.50
2022-10-11T05:06:56.568Z,14.93
2022-10-11T05:10:00.504Z,15.13
2022-10-11T05:13:03.831Z,14.13
2022-10-11T05:16:10.773Z,15.60
2022-10-11T05:19:14.662Z,15.77
2022-10-11T05:22:17.525Z,13.73
2022-10-11T05:25:21.381Z,13.85
2022-10-11T05:28:25.019Z,13.10
2022-10-11T05:31:28.031Z,10.52
2022-10-11T05:34:31.599Z,8.20
2022-10-11T05:37:35.190Z,8.83
2022-10-11T05:40:40.446Z,9.40
2022-10-11T05:43:45.210Z,8.32
2022-10-11T05:46:48.502Z,7.32
2022-10-11T05:49:52.090Z,6.30
2022-10-11T05:52:56.970Z,5.67
2022-10-11T05:56:01.025Z,5.80
2022-10-11T05:59:06.437Z,5.72
2022-10-11T06:02:13.403Z,5.65
2022-10-11T06:05:17.001Z,6.27
2022-10-11T06:08:20.594Z,5.97
2022-10-11T06:11:28.197Z,5.72
2022-10-11T06:14:32.083Z,7.18
2022-10-11T06:17:35.617Z,5.63
2022-10-11T06:20:38.499Z,5.17
2022-10-11T06:23:41.841Z,5.00
2022-10-11T06:26:44.726Z,4.95
2022-10-11T06:29:48.678Z,4.63
2022-10-11T06:32:52.248Z,4.32
2022-10-11T06:36:01.775Z,3.87
2022-10-11T06:39:05.514Z,4.33
2022-10-11T06:42:08.813Z,4.00
2022-10-11T06:45:12.299Z,3.90
2022-10-11T06:48:16.132Z,3.72
2022-10-11T06:51:21.409Z,4.23
2022-10-11T06:54:25.203Z,4.23
2022-10-11T06:57:29.766Z,4.30
2022-10-11T07:00:33.055Z,4.30
2022-10-11T07:03:37.219Z,4.88
2022-10-11T07:06:42.157Z,5.03
2022-10-11T07:09:45.740Z,4.73
2022-10-11T07:12:49.655Z,4.88
2022-10-11T07:15:53.158Z,4.72
2022-10-11T07:19:01.240Z,5.20
2022-10-11T07:22:05.208Z,4.90
2022-10-11T07:25:08.844Z,4.77
2022-10-11T07:28:13.256Z,4.82
2022-10-11T07:31:20.428Z,5.05
2022-10-11T07:34:23.566Z,4.97
2022-10-11T07:37:27.561Z,4.60
2022-10-11T07:40:30.580Z,4.80
2022-10-11T07:43:35.079Z,4.72
2022-10-11T07:46:38.651Z,9.95
2022-10-11T07:49:41.555Z,8.68
2022-10-11T07:52:45.127Z,6.10
2022-10-11T07:55:48.756Z,4.20
2022-10-11T07:58:55.120Z,4.30
2022-10-11T08:01:58.679Z,4.78
2022-10-11T08:05:01.685Z,5.57
2022-10-11T08:08:05.596Z,4.43
2022-10-11T08:11:09.273Z,2.97
2022-10-11T08:14:12.359Z,2.85
2022-10-11T08:17:16.417Z,3.45
2022-10-11T08:20:19.435Z,4.93
2022-10-11T08:23:23.564Z,7.83
2022-10-11T08:26:26.500Z,8.23
2022-10-11T08:29:30.281Z,5.65
2022-10-11T08:32:33.695Z,5.60
2022-10-11T08:35:37.766Z,11.88
2022-10-11T08:38:42.154Z,8.40
2022-10-11T08:41:56.428Z,5.97
2022-10-11T08:45:12.289Z,6.68
2022-10-11T08:48:21.444Z,16.38
2022-10-11T08:52:02.943Z,8.75
2022-10-11T08:55:18.383Z,5.43
2022-10-11T08:58:38.074Z,9.03
2022-10-11T09:01:50.214Z,7.22
2022-10-11T09:04:56.294Z,6.88
2022-10-11T09:08:19.967Z,8.48
2022-10-11T09:11:53.242Z,14.50
2022-10-11T09:15:18.276Z,72.57
2022-10-11T09:18:49.183Z,31.30
2022-10-11T09:22:17.709Z,33.05
2022-10-11T09:25:42.156Z,25.75
2022-10-11T09:29:11.304Z,16.40
2022-10-11T09:32:18.266Z,13.00
2022-10-11T09:35:23.877Z,22.08
2022-10-11T09:38:44.058Z,26.00
2022-10-11T09:41:52.964Z,28.50
2022-10-11T09:45:00.606Z,25.40
2022-10-11T09:48:07.552Z,25.47
2022-10-11T09:51:20.869Z,23.95
2022-10-11T09:54:48.989Z,23.13
2022-10-11T09:57:55.789Z,24.05
2022-10-11T10:01:08.220Z,26.07
2022-10-11T10:04:19.664Z,30.93
2022-10-11T10:07:23.823Z,52.17
2022-10-11T10:10:32.859Z,67.13
2022-10-11T10:13:50.641Z,86.97
2022-10-11T10:17:18.019Z,85.43
2022-10-11T10:20:28.532Z,63.77
2022-10-11T10:23:35.451Z,43.63
2022-10-11T10:26:40.468Z,36.75
2022-10-11T10:30:01.236Z,40.08
2022-10-11T10:33:07.844Z,36.23
2022-10-11T10:36:20.305Z,37.80
2022-10-11T10:39:34.615Z,37.58
2022-10-11T10:42:38.910Z,47.65
2022-10-11T10:46:10.587Z,37.20
2022-10-11T10:53:05.509Z,42.07
2022-10-11T10:56:15.553Z,37.65
2022-10-11T10:59:36.726Z,43.38
2022-10-11T11:02:58.219Z,38.67
2022-10-11T11:06:06.988Z,37.30
2022-10-11T11:09:23.824Z,28.00
2022-10-11T11:12:44.836Z,30.70
2022-10-11T11:16:03.817Z,33.45
2022-10-11T11:19:29.792Z,31.63
2022-10-11T11:22:39.394Z,51.23
2022-10-11T11:26:01.761Z,57.73
2022-10-11T11:29:24.658Z,67.47
2022-10-11T11:32:33.340Z,76.70
2022-10-11T11:35:53.692Z,76.63
2022-10-11T11:39:03.609Z,69.37
2022-10-11T11:42:42.510Z,58.87
2022-10-11T11:45:51.558Z,40.10
2022-10-11T11:48:56.665Z,51.35
2022-10-11T11:52:00.561Z,34.75
2022-10-11T11:55:53.859Z,34.73
2022-10-11T11:59:07.373Z,38.00
2022-10-11T12:02:23.389Z,40.30
2022-10-11T12:05:30.925Z,40.63
2022-10-11T12:08:36.519Z,33.88
2022-10-11T12:11:56.284Z,40.73
2022-10-11T12:15:26.679Z,35.23
2022-10-11T12:18:31.419Z,33.13
2022-10-11T12:21:39.714Z,35.35
2022-10-11T12:24:56.313Z,28.75
2022-10-11T12:28:01.277Z,31.33
2022-10-11T12:31:06.653Z,37.73
2022-10-11T12:34:10.359Z,32.67
2022-10-11T12:37:54.310Z,43.83
2022-10-11T12:41:18.737Z,39.47
2022-10-11T12:44:29.340Z,38.73
2022-10-11T12:47:47.429Z,37.10
2022-10-11T12:51:05.786Z,39.05
2022-10-11T12:54:37.399Z,35.70
2022-10-11T12:58:04.762Z,27.10
2022-10-11T13:01:11.526Z,19.73
2022-10-11T13:04:19.692Z,19.70
2022-10-11T13:07:24.485Z,14.98
2022-10-11T13:10:48.017Z,17.50
2022-10-11T13:14:14.370Z,17.20
2022-10-11T13:17:27.254Z,19.73
2022-10-11T13:20:37.507Z,28.10
2022-10-11T13:23:43.309Z,29.75
2022-10-11T13:26:49.488Z,27.50
2022-10-11T13:29:55.548Z,23.45
2022-10-11T13:33:00.691Z,20.07
2022-10-11T13:36:06.969Z,19.23
2022-10-11T13:39:31.333Z,19.52
2022-10-11T13:42:35.706Z,18.33
2022-10-11T13:45:42.393Z,22.42
2022-10-11T13:48:46.300Z,18.50
2022-10-11T13:52:22.160Z,19.03
2022-10-11T13:55:34.526Z,18.58
2022-10-11T13:58:47.218Z,15.10
2022-10-11T14:01:55.228Z,14.15
2022-10-11T14:04:59.365Z,14.60
2022-10-11T14:08:06.588Z,13.20
2022-10-11T14:11:11.351Z,12.15
2022-10-11T14:14:33.639Z,11.70
2022-10-11T14:17:43.591Z,11.38
2022-10-11T14:20:47.270Z,12.83
2022-10-11T14:23:59.450Z,13.07
2022-10-11T14:27:06.522Z,11.90
2022-10-11T14:30:25.430Z,11.60
2022-10-11T14:33:30.040Z,10.63
2022-10-11T14:36:33.704Z,12.00
2022-10-11T14:39:37.412Z,11.37
2022-10-11T14:42:42.777Z,9.10
2022-10-11T14:45:46.399Z,8.13
2022-10-11T14:48:55.660Z,8.73
2022-10-11T14:52:00.702Z,7.60
2022-10-11T14:55:04.476Z,7.47
2022-10-11T14:58:09.700Z,8.00
2022-10-11T15:01:18.002Z,7.43
2022-10-11T15:04:26.707Z,6.18
2022-10-11T15:07:31.443Z,5.97
2022-10-11T15:10:40.669Z,7.40
2022-10-11T15:13:44.682Z,8.90
2022-10-11T15:16:48.441Z,8.13
2022-10-11T15:19:52.069Z,5.88
2022-10-11T15:22:57.323Z,5.50
2022-10-11T15:26:00.920Z,5.33
2022-10-11T15:29:05.445Z,5.07
2022-10-11T15:32:08.326Z,6.55
2022-10-11T15:35:12.930Z,6.18
2022-10-11T15:38:19.187Z,5.47
2022-10-11T15:41:24.798Z,5.27
2022-10-11T15:44:28.487Z,5.60
2022-10-11T15:47:32.337Z,4.75
2022-10-11T15:50:37.979Z,4.47
2022-10-11T15:53:41.547Z,4.87
2022-10-11T15:56:45.272Z,4.30
2022-10-11T15:59:49.162Z,4.22
2022-10-11T16:02:58.980Z,4.93
2022-10-11T16:06:05.529Z,4.90
2022-10-11T16:09:09.330Z,4.27
2022-10-11T16:12:13.014Z,4.10
2022-10-11T16:15:16.916Z,4.40
2022-10-11T16:18:21.925Z,5.20
2022-10-11T16:21:25.661Z,5.30
2022-10-11T16:24:29.725Z,5.17
2022-10-11T16:27:34.551Z,4.93
2022-10-11T16:30:44.737Z,4.82
2022-10-11T16:33:50.720Z,4.25
2022-10-11T16:36:54.665Z,4.70
2022-10-11T16:39:58.282Z,5.03
2022-10-11T16:43:07.986Z,5.03
2022-10-11T16:46:11.657Z,5.80
2022-10-11T16:49:25.659Z,6.43
2022-10-11T16:52:29.646Z,7.15
2022-10-11T16:55:33.429Z,7.50
2022-10-11T16:58:37.281Z,6.57
2022-10-11T17:01:40.929Z,6.75
2022-10-11T17:04:44.087Z,6.50
2022-10-11T17:07:48.110Z,6.13
2022-10-11T17:10:57.706Z,6.57
2022-10-11T17:14:02.593Z,8.00
2022-10-11T17:17:09.189Z,6.93
2022-10-11T17:20:13.204Z,7.82
2022-10-11T17:23:16.922Z,5.18
2022-10-11T17:26:25.776Z,5.27
2022-10-11T17:29:29.377Z,4.57
2022-10-11T17:32:33.330Z,4.40
2022-10-11T17:35:37.076Z,4.50
2022-10-11T17:38:40.946Z,4.35
2022-10-11T17:41:45.398Z,4.03
2022-10-11T17:44:49.261Z,3.80
2022-10-11T17:47:52.882Z,3.17
2022-10-11T17:50:56.963Z,3.22
2022-10-11T17:54:00.712Z,3.08
2022-10-11T17:57:04.666Z,2.93
2022-10-11T18:00:09.106Z,2.90
2022-10-11T18:03:13.086Z,3.22
2022-10-11T18:06:16.668Z,2.90
2022-10-11T18:09:21.750Z,2.20
2022-10-11T18:12:26.541Z,2.30
2022-10-11T18:15:33.894Z,2.10
2022-10-11T18:18:37.544Z,2.22
2022-10-11T18:21:41.040Z,1.70
2022-10-11T18:24:44.683Z,2.40
2022-10-11T18:27:48.585Z,2.40
2022-10-11T18:30:53.665Z,2.73
2022-10-11T18:33:57.667Z,2.05
2022-10-11T18:37:01.289Z,2.80
2022-10-11T18:40:05.790Z,2.17
2022-10-11T18:43:09.053Z,2.83
2022-10-11T18:46:15.413Z,2.73
2022-10-11T18:49:18.893Z,3.15
2022-10-11T18:52:22.491Z,2.72
2022-10-11T18:55:25.720Z,3.00
2022-10-11T18:58:33.476Z,2.67
2022-10-11T19:01:40.615Z,2.60
2022-10-11T19:04:44.649Z,2.70
2022-10-11T19:07:47.575Z,2.10
2022-10-11T19:10:50.826Z,2.55
2022-10-11T19:13:59.631Z,2.97
2022-10-11T19:17:03.488Z,2.93
2022-10-11T19:20:07.431Z,3.40
2022-10-11T19:23:11.309Z,2.95
2022-10-11T19:26:20.714Z,3.47
2022-10-11T19:29:26.667Z,3.63
2022-10-11T19:32:30.374Z,3.03
2022-10-11T19:35:34.473Z,3.40
2022-10-11T19:38:38.053Z,2.80
2022-10-11T19:41:42.730Z,2.75
2022-10-11T19:44:46.226Z,3.50
2022-10-11T19:47:50.422Z,4.93
2022-10-11T19:51:01.420Z,4.53
2022-10-11T19:54:08.300Z,3.00
2022-10-11T19:57:11.975Z,2.60
2022-10-11T20:00:16.310Z,2.40
2022-10-11T20:03:19.846Z,1.80
2022-10-11T20:06:25.018Z,2.20
2022-10-11T20:09:30.363Z,1.70
2022-10-11T20:12:35.479Z,1.73
2022-10-11T20:15:39.539Z,1.87
2022-10-11T20:18:43.876Z,2.30
2022-10-11T20:21:48.237Z,2.30
2022-10-11T20:24:52.270Z,2.50
2022-10-11T20:27:55.779Z,2.13
2022-10-11T20:31:01.224Z,2.70
2022-10-11T20:34:07.677Z,2.80
2022-10-11T20:37:11.741Z,3.38
2022-10-11T20:40:15.370Z,3.40
2022-10-11T20:43:19.136Z,2.83
2022-10-11T20:46:25.949Z,3.10
2022-10-11T20:49:29.603Z,3.77
2022-10-11T20:52:33.530Z,3.13
2022-10-11T20:55:37.583Z,3.30
2022-10-11T20:58:42.960Z,3.45
2022-10-11T21:01:46.874Z,3.90
2022-10-11T21:04:51.879Z,3.07
2022-10-11T21:07:55.757Z,3.13
2022-10-11T21:10:59.526Z,4.18
2022-10-11T21:14:06.462Z,5.57
2022-10-11T21:17:10.020Z,6.70
2022-10-11T21:20:13.760Z,5.50
2022-10-11T21:23:19.407Z,4.50
2022-10-11T21:26:23.392Z,4.18
2022-10-11T21:29:27.005Z,7.00
2022-10-11T21:32:30.946Z,3.67
2022-10-11T21:35:34.529Z,3.37
2022-10-11T21:38:38.698Z,3.05
2022-10-11T21:41:43.189Z,2.45
2022-10-11T21:44:46.379Z,2.72
2022-10-11T21:47:50.075Z,3.20
2022-10-11T21:50:55.485Z,4.15
2022-10-11T21:54:00.897Z,9.20
2022-10-11T21:57:04.620Z,9.40
2022-10-11T22:00:08.924Z,7.50
2022-10-11T22:03:16.344Z,7.37
2022-10-11T22:06:20.095Z,5.50
2022-10-11T22:09:24.145Z,5.15
2022-10-11T22:12:27.812Z,4.97
2022-10-11T22:15:35.535Z,6.90
2022-10-11T22:18:39.825Z,6.50
2022-10-11T22:21:45.171Z,10.27
2022-10-11T22:24:49.127Z,11.88
2022-10-11T22:27:53.229Z,7.50
2022-10-11T22:30:56.361Z,5.90
2022-10-11T22:34:01.413Z,4.97
2022-10-11T22:37:05.097Z,3.50
2022-10-11T22:40:09.585Z,3.47
2022-10-11T22:43:13.194Z,3.10
2022-10-11T22:46:16.827Z,3.15
2022-10-11T22:49:20.367Z,3.33
2022-10-11T22:52:24.310Z,3.30
2022-10-11T22:55:27.459Z,3.90
2022-10-11T22:58:31.630Z,4.15
2022-10-11T23:01:35.106Z,4.32
2022-10-11T23:04:39.253Z,8.10
2022-10-11T23:07:42.865Z,5.13
2022-10-11T23:10:46.484Z,5.38
2022-10-11T23:13:49.645Z,4.90
2022-10-11T23:16:54.028Z,8.73
2022-10-11T23:19:57.622Z,9.10
2022-10-11T23:23:01.556Z,6.03
2022-10-11T23:26:07.334Z,4.93
2022-10-11T23:29:11.243Z,4.65
2022-10-11T23:32:14.790Z,4.70
2022-10-11T23:35:19.040Z,4.07
2022-10-11T23:38:22.656Z,4.20
2022-10-11T23:41:28.998Z,4.72
2022-10-11T23:44:32.522Z,4.82
2022-10-11T23:47:36.615Z,4.03
2022-10-11T23:50:40.587Z,3.93
2022-10-11T23:53:44.612Z,4.30
2022-10-11T23:56:48.184Z,4.45
2022-10-11T23:59:52.133Z,4.15
